createdAt,value
2019-05-17T00:00:16.858Z,8.68
2019-05-17T00:03:17.041Z,8.57
2019-05-17T00:06:16.838Z,8.53
2019-05-17T00:09:17.557Z,8.68
2019-05-17T00:12:16.672Z,8.54
2019-05-17T00:15:16.988Z,8.65
2019-05-17T00:18:17.165Z,8.55
2019-05-17T00:21:16.992Z,8.60
2019-05-17T00:24:18.350Z,8.55
2019-05-17T00:27:17.204Z,8.58
2019-05-17T00:30:17.571Z,8.55
2019-05-17T00:33:17.014Z,8.65
2019-05-17T00:36:17.826Z,8.66
2019-05-17T00:39:16.678Z,8.66
2019-05-17T00:42:17.073Z,8.65
2019-05-17T00:45:17.648Z,8.66
2019-05-17T00:48:17.110Z,8.68
2019-05-17T00:51:16.731Z,8.72
2019-05-17T00:54:23.594Z,8.66
2019-05-17T00:57:16.597Z,8.65
2019-05-17T01:00:17.072Z,8.63
2019-05-17T01:03:16.269Z,8.66
2019-05-17T01:06:16.928Z,8.63
2019-05-17T01:09:17.061Z,8.71
2019-05-17T01:12:16.459Z,8.66
2019-05-17T01:15:16.793Z,8.71
2019-05-17T01:18:16.246Z,8.71
2019-05-17T01:21:16.891Z,8.72
2019-05-17T01:24:17.323Z,8.71
2019-05-17T01:27:17.189Z,8.66
2019-05-17T01:30:17.505Z,8.69
2019-05-17T01:33:17.080Z,8.71
2019-05-17T01:36:17.341Z,8.69
2019-05-17T01:39:20.654Z,8.72
2019-05-17T01:42:17.149Z,8.78
2019-05-17T01:45:16.717Z,8.72
2019-05-17T01:48:16.410Z,8.71
2019-05-17T01:51:16.935Z,8.69
2019-05-17T01:54:17.359Z,8.68
2019-05-17T01:57:16.806Z,8.66
2019-05-17T02:00:17.467Z,8.76
2019-05-17T02:03:17.196Z,8.65
2019-05-17T02:06:16.522Z,8.68
2019-05-17T02:09:32.276Z,8.78
2019-05-17T02:12:17.284Z,8.68
2019-05-17T02:15:16.420Z,8.68
2019-05-17T02:18:17.214Z,8.69
2019-05-17T02:21:16.859Z,8.66
2019-05-17T02:24:16.927Z,8.73
2019-05-17T02:27:14.976Z,8.72
2019-05-17T02:30:15.077Z,8.68
2019-05-17T02:33:14.904Z,8.76
2019-05-17T02:36:14.865Z,8.73
2019-05-17T02:39:14.841Z,8.69
2019-05-17T02:42:14.780Z,8.69
2019-05-17T02:45:14.777Z,8.79
2019-05-17T02:48:14.743Z,8.72
2019-05-17T02:51:14.707Z,8.62
2019-05-17T02:54:14.700Z,8.65
2019-05-17T02:57:14.623Z,8.63
2019-05-17T03:00:14.630Z,8.63
2019-05-17T03:03:14.595Z,8.69
2019-05-17T03:06:14.543Z,8.69
2019-05-17T03:09:14.518Z,8.68
2019-05-17T03:12:14.465Z,8.68
2019-05-17T03:15:14.446Z,8.73
2019-05-17T03:18:14.439Z,8.66
2019-05-17T03:21:14.376Z,8.62
2019-05-17T03:24:14.365Z,8.68
2019-05-17T03:27:14.320Z,8.63
2019-05-17T03:30:18.702Z,8.68
2019-05-17T03:33:16.051Z,8.69
2019-05-17T03:36:16.766Z,8.78
2019-05-17T03:39:14.217Z,8.71
2019-05-17T03:42:14.164Z,8.68
2019-05-17T03:45:14.318Z,8.73
2019-05-17T03:48:14.106Z,8.79
2019-05-17T03:51:14.080Z,8.68
2019-05-17T03:54:14.156Z,8.79
2019-05-17T03:57:14.021Z,8.73
2019-05-17T04:00:14.083Z,8.83
2019-05-17T04:03:13.976Z,8.79
2019-05-17T04:06:13.918Z,8.86
2019-05-17T04:09:14.268Z,8.88
2019-05-17T04:12:13.921Z,8.90
2019-05-17T04:15:14.052Z,8.87
2019-05-17T04:18:13.771Z,8.86
2019-05-17T04:21:13.761Z,8.86
2019-05-17T04:24:13.709Z,8.83
2019-05-17T04:27:13.863Z,8.91
2019-05-17T04:30:13.717Z,9.04
2019-05-17T04:33:13.641Z,9.06
2019-05-17T04:36:13.602Z,9.12
2019-05-17T04:39:13.743Z,9.09
2019-05-17T04:42:13.846Z,9.04
2019-05-17T04:45:13.543Z,9.01
2019-05-17T04:48:13.564Z,8.93
2019-05-17T04:51:13.538Z,9.05
2019-05-17T04:54:13.838Z,9.06
2019-05-17T04:57:13.415Z,9.13
2019-05-17T05:00:13.517Z,9.15
2019-05-17T05:03:13.322Z,9.27
2019-05-17T05:06:13.658Z,9.25
2019-05-17T05:09:13.262Z,9.24
2019-05-17T05:12:13.229Z,9.34
2019-05-17T05:15:13.179Z,9.39
2019-05-17T05:18:13.686Z,9.48
2019-05-17T05:21:13.113Z,9.45
2019-05-17T05:24:13.089Z,9.60
2019-05-17T05:27:13.041Z,9.61
2019-05-17T05:30:13.055Z,9.75
2019-05-17T05:33:13.217Z,9.85
2019-05-17T05:36:12.960Z,9.88
2019-05-17T05:39:12.918Z,10.10
2019-05-17T05:42:14.038Z,9.89
2019-05-17T05:45:12.872Z,9.86
2019-05-17T05:48:13.217Z,10.03
2019-05-17T05:51:13.714Z,10.09
2019-05-17T05:54:12.773Z,10.37
2019-05-17T05:57:12.875Z,10.30
2019-05-17T06:00:13.014Z,10.34
2019-05-17T06:03:12.699Z,10.22
2019-05-17T06:06:12.643Z,10.39
2019-05-17T06:09:12.586Z,10.59
2019-05-17T06:12:22.965Z,10.56
2019-05-17T06:15:13.522Z,10.71
2019-05-17T06:18:12.674Z,10.95
2019-05-17T06:21:12.463Z,10.96
2019-05-17T06:24:12.437Z,11.34
2019-05-17T06:27:12.501Z,11.28
2019-05-17T06:30:12.821Z,11.16
2019-05-17T06:33:26.685Z,11.47
2019-05-17T06:36:13.816Z,11.75
2019-05-17T06:39:12.280Z,11.85
2019-05-17T06:42:12.233Z,12.06
2019-05-17T06:45:12.533Z,12.24
2019-05-17T06:48:12.206Z,12.29
2019-05-17T06:51:12.158Z,11.71
2019-05-17T06:54:12.207Z,11.86
2019-05-17T06:57:12.750Z,11.96
2019-05-17T07:00:18.955Z,11.90
2019-05-17T07:03:13.000Z,11.19
2019-05-17T07:06:11.956Z,11.80
2019-05-17T07:09:11.948Z,11.86
2019-05-17T07:12:11.899Z,11.86
2019-05-17T07:15:11.870Z,12.41
2019-05-17T07:18:11.828Z,12.05
2019-05-17T07:21:11.817Z,12.04
2019-05-17T07:24:11.772Z,12.13
2019-05-17T07:27:11.739Z,12.09
2019-05-17T07:30:11.696Z,12.11
2019-05-17T07:33:11.691Z,12.97
2019-05-17T07:36:11.667Z,13.04
2019-05-17T07:39:11.601Z,12.96
2019-05-17T07:42:11.600Z,12.78
2019-05-17T07:45:11.539Z,12.54
2019-05-17T07:48:11.516Z,12.96
2019-05-17T07:51:11.486Z,12.75
2019-05-17T07:54:11.436Z,12.45
2019-05-17T07:57:11.436Z,12.71
2019-05-17T08:00:11.385Z,12.87
2019-05-17T08:03:13.457Z,13.70
2019-05-17T08:06:11.340Z,12.95
2019-05-17T08:09:13.749Z,12.82
2019-05-17T08:12:11.288Z,12.67
2019-05-17T08:15:11.327Z,12.24
2019-05-17T08:18:11.303Z,12.27
2019-05-17T08:21:11.168Z,12.01
2019-05-17T08:24:11.111Z,12.11
2019-05-17T08:27:11.116Z,12.33
2019-05-17T08:30:11.221Z,12.27
2019-05-17T08:33:11.336Z,12.69
2019-05-17T08:36:11.005Z,12.63
2019-05-17T08:39:10.960Z,12.78
2019-05-17T08:42:10.941Z,12.84
2019-05-17T08:45:10.897Z,12.85
2019-05-17T08:48:10.883Z,12.69
2019-05-17T08:51:25.686Z,12.92
2019-05-17T08:54:10.814Z,13.06
2019-05-17T08:57:10.787Z,13.15
2019-05-17T09:00:11.022Z,13.07
2019-05-17T09:03:11.018Z,13.36
2019-05-17T09:06:12.489Z,13.11
2019-05-17T09:09:10.636Z,13.04
2019-05-17T09:12:11.155Z,13.47
2019-05-17T09:15:10.558Z,12.88
2019-05-17T09:18:10.581Z,13.03
2019-05-17T09:21:10.496Z,13.47
2019-05-17T09:24:10.575Z,13.54
2019-05-17T09:27:10.434Z,13.52
2019-05-17T09:30:10.439Z,13.51
2019-05-17T09:33:11.235Z,14.44
2019-05-17T09:36:10.357Z,15.51
2019-05-17T09:39:10.341Z,14.65
2019-05-17T09:42:10.492Z,14.14
2019-05-17T09:45:10.251Z,13.80
2019-05-17T09:48:10.568Z,13.76
2019-05-17T09:51:10.581Z,14.09
2019-05-17T09:54:10.381Z,13.88
2019-05-17T09:57:10.140Z,13.63
2019-05-17T10:00:10.244Z,13.61
2019-05-17T10:03:10.126Z,13.24
2019-05-17T10:06:10.030Z,13.79
2019-05-17T10:09:10.001Z,13.69
2019-05-17T10:12:09.955Z,13.63
2019-05-17T10:15:10.274Z,13.63
2019-05-17T10:18:11.143Z,13.36
2019-05-17T10:21:10.457Z,13.61
2019-05-17T10:24:09.859Z,13.40
2019-05-17T10:27:10.923Z,13.52
2019-05-17T10:30:10.460Z,13.94
2019-05-17T10:33:10.166Z,13.83
2019-05-17T10:36:09.686Z,14.06
2019-05-17T10:39:10.000Z,13.84
2019-05-17T10:42:10.041Z,14.04
2019-05-17T10:45:10.978Z,14.21
2019-05-17T10:48:10.254Z,13.99
2019-05-17T10:51:10.094Z,14.47
2019-05-17T10:54:09.736Z,14.61
2019-05-17T10:57:10.403Z,14.54
2019-05-17T11:00:10.123Z,14.56
2019-05-17T11:03:09.972Z,14.34
2019-05-17T11:06:10.914Z,14.65
2019-05-17T11:09:10.235Z,14.53
2019-05-17T11:12:09.299Z,13.89
2019-05-17T11:15:11.649Z,13.73
2019-05-17T11:18:09.228Z,13.95
2019-05-17T11:21:09.244Z,14.01
2019-05-17T11:24:09.182Z,14.49
2019-05-17T11:27:09.131Z,15.01
2019-05-17T11:30:09.122Z,15.17
2019-05-17T11:33:09.086Z,15.12
2019-05-17T11:36:09.045Z,16.40
2019-05-17T11:39:09.008Z,15.86
2019-05-17T11:42:16.029Z,15.70
2019-05-17T11:45:08.942Z,16.01
2019-05-17T11:48:08.944Z,16.38
2019-05-17T11:51:08.910Z,16.63
2019-05-17T11:54:08.892Z,17.89
2019-05-17T11:57:12.209Z,19.87
2019-05-17T12:00:08.777Z,18.44
2019-05-17T12:03:08.759Z,18.62
2019-05-17T12:06:08.715Z,20.09
2019-05-17T12:09:08.715Z,18.68
2019-05-17T12:12:08.704Z,18.10
2019-05-17T12:15:08.625Z,18.17
2019-05-17T12:18:08.598Z,18.07
2019-05-17T12:21:08.553Z,19.33
2019-05-17T12:24:08.570Z,19.57
2019-05-17T12:27:08.493Z,17.87
2019-05-17T12:30:08.487Z,18.31
2019-05-17T12:33:08.449Z,17.28
2019-05-17T12:36:08.402Z,18.03
2019-05-17T12:39:08.449Z,21.81
2019-05-17T12:42:08.491Z,19.51
2019-05-17T12:45:08.327Z,19.70
2019-05-17T12:48:08.303Z,20.42
2019-05-17T12:51:08.250Z,17.79
2019-05-17T12:54:08.231Z,18.59
2019-05-17T12:57:08.179Z,21.48
2019-05-17T13:00:15.206Z,20.90
2019-05-17T13:03:08.113Z,20.05
2019-05-17T13:06:08.092Z,22.56
2019-05-17T13:09:08.067Z,21.11
2019-05-17T13:12:15.580Z,19.95
2019-05-17T13:15:07.983Z,20.10
2019-05-17T13:18:07.974Z,22.89
2019-05-17T13:21:07.934Z,23.47
2019-05-17T13:24:07.889Z,19.57
2019-05-17T13:27:15.414Z,21.08
2019-05-17T13:30:07.824Z,20.38
2019-05-17T13:33:07.812Z,21.61
2019-05-17T13:36:07.781Z,21.64
2019-05-17T13:39:14.765Z,21.98
2019-05-17T13:42:07.723Z,21.69
2019-05-17T13:45:07.693Z,19.68
2019-05-17T13:48:14.723Z,20.95
2019-05-17T13:51:07.602Z,22.31
2019-05-17T13:54:07.586Z,21.59
2019-05-17T13:57:14.590Z,20.83
2019-05-17T14:00:07.529Z,20.35
2019-05-17T14:03:07.499Z,20.24
2019-05-17T14:06:07.444Z,19.66
2019-05-17T14:09:07.447Z,20.86
2019-05-17T14:12:07.382Z,19.98
2019-05-17T14:15:07.375Z,19.63
2019-05-17T14:18:07.313Z,20.12
2019-05-17T14:21:07.329Z,20.35
2019-05-17T14:24:07.394Z,20.95
2019-05-17T14:27:07.224Z,21.99
2019-05-17T14:30:07.281Z,24.37
2019-05-17T14:33:07.193Z,21.42
2019-05-17T14:36:07.124Z,20.42
2019-05-17T14:39:07.127Z,19.87
2019-05-17T14:42:07.106Z,19.65
2019-05-17T14:45:07.050Z,18.94
2019-05-17T14:48:07.006Z,19.32
2019-05-17T14:51:06.991Z,19.58
2019-05-17T14:54:06.958Z,19.32
2019-05-17T14:57:06.937Z,18.97
2019-05-17T15:00:06.874Z,19.50
2019-05-17T15:03:07.665Z,19.01
2019-05-17T15:06:06.838Z,18.55
2019-05-17T15:09:06.778Z,18.74
2019-05-17T15:12:06.769Z,18.72
2019-05-17T15:15:06.721Z,18.40
2019-05-17T15:18:09.409Z,18.27
2019-05-17T15:21:06.666Z,18.29
2019-05-17T15:24:06.621Z,18.44
2019-05-17T15:27:06.616Z,18.72
2019-05-17T15:30:06.576Z,19.70
2019-05-17T15:33:06.534Z,19.42
2019-05-17T15:36:06.506Z,18.65
2019-05-17T15:39:06.511Z,18.65
2019-05-17T15:42:06.431Z,19.50
2019-05-17T15:45:06.405Z,21.75
2019-05-17T15:48:07.105Z,21.21
2019-05-17T15:51:06.341Z,19.61
2019-05-17T15:54:06.311Z,20.27
2019-05-17T15:57:06.305Z,20.61
2019-05-17T16:00:06.248Z,19.50
2019-05-17T16:03:06.226Z,19.60
2019-05-17T16:06:06.193Z,19.01
2019-05-17T16:09:06.185Z,18.21
2019-05-17T16:12:06.104Z,17.70
2019-05-17T16:15:06.090Z,17.28
2019-05-17T16:18:06.086Z,17.08
2019-05-17T16:21:06.099Z,17.25
2019-05-17T16:24:05.984Z,17.23
2019-05-17T16:27:05.975Z,17.20
2019-05-17T16:30:05.935Z,17.32
2019-05-17T16:33:05.904Z,17.51
2019-05-17T16:36:05.866Z,17.30
2019-05-17T16:39:08.333Z,17.10
2019-05-17T16:42:05.815Z,17.07
2019-05-17T16:45:05.770Z,17.10
2019-05-17T16:48:05.723Z,17.04
2019-05-17T16:51:05.710Z,16.73
2019-05-17T16:54:05.678Z,16.74
2019-05-17T16:57:05.642Z,16.78
2019-05-17T17:00:05.596Z,16.67
2019-05-17T17:03:05.595Z,16.67
2019-05-17T17:06:05.580Z,16.75
2019-05-17T17:09:05.535Z,16.49
2019-05-17T17:12:05.461Z,16.48
2019-05-17T17:15:05.460Z,16.37
2019-05-17T17:18:05.400Z,16.26
2019-05-17T17:21:05.430Z,16.30
2019-05-17T17:24:05.346Z,16.15
2019-05-17T17:27:05.318Z,16.11
2019-05-17T17:30:05.279Z,16.01
2019-05-17T17:33:05.260Z,16.04
2019-05-17T17:36:05.212Z,16.00
2019-05-17T17:39:05.187Z,16.03
2019-05-17T17:42:05.150Z,15.97
2019-05-17T17:45:05.141Z,15.81
2019-05-17T17:48:05.081Z,15.72
2019-05-17T17:51:05.069Z,15.79
2019-05-17T17:54:05.037Z,15.75
2019-05-17T17:57:04.982Z,15.63
2019-05-17T18:00:04.973Z,15.54
2019-05-17T18:03:04.938Z,15.61
2019-05-17T18:06:04.911Z,15.39
2019-05-17T18:09:04.853Z,15.39
2019-05-17T18:12:04.855Z,15.23
2019-05-17T18:15:06.483Z,15.23
2019-05-17T18:18:04.768Z,15.12
2019-05-17T18:21:04.751Z,15.12
2019-05-17T18:24:04.706Z,15.01
2019-05-17T18:27:04.696Z,14.98
2019-05-17T18:30:04.624Z,14.91
2019-05-17T18:33:04.611Z,14.69
2019-05-17T18:36:04.559Z,14.71
2019-05-17T18:39:04.546Z,14.61
2019-05-17T18:42:04.505Z,14.65
2019-05-17T18:45:04.490Z,14.61
2019-05-17T18:48:04.446Z,14.49
2019-05-17T18:51:04.406Z,14.53
2019-05-17T18:54:04.374Z,14.49
2019-05-17T18:57:04.343Z,14.44
2019-05-17T19:00:04.325Z,14.43
2019-05-17T19:03:04.279Z,14.25
2019-05-17T19:06:04.259Z,14.20
2019-05-17T19:09:04.205Z,14.13
2019-05-17T19:12:04.189Z,13.99
2019-05-17T19:15:04.152Z,13.91
2019-05-17T19:18:04.116Z,13.87
2019-05-17T19:21:04.085Z,13.79
2019-05-17T19:24:04.053Z,13.77
2019-05-17T19:27:04.019Z,13.71
2019-05-17T19:30:03.996Z,13.81
2019-05-17T19:33:03.947Z,13.69
2019-05-17T19:36:03.934Z,13.61
2019-05-17T19:39:03.875Z,13.41
2019-05-17T19:42:03.856Z,13.44
2019-05-17T19:45:03.840Z,13.37
2019-05-17T19:48:03.801Z,13.24
2019-05-17T19:51:03.757Z,13.12
2019-05-17T19:54:03.715Z,13.06
2019-05-17T19:57:03.705Z,12.99
2019-05-17T20:00:03.668Z,13.02
2019-05-17T20:03:03.653Z,12.95
2019-05-17T20:06:03.768Z,12.78
2019-05-17T20:09:10.619Z,12.96
2019-05-17T20:12:03.533Z,12.77
2019-05-17T20:15:16.643Z,12.77
2019-05-17T20:18:04.486Z,12.84
2019-05-17T20:21:03.439Z,12.92
2019-05-17T20:24:03.418Z,12.93
2019-05-17T20:27:03.365Z,12.92
2019-05-17T20:30:03.424Z,13.00
2019-05-17T20:33:03.323Z,12.92
2019-05-17T20:36:03.288Z,13.03
2019-05-17T20:39:03.228Z,12.93
2019-05-17T20:42:03.207Z,12.89
2019-05-17T20:45:03.181Z,12.79
2019-05-17T20:48:03.146Z,12.79
2019-05-17T20:51:03.092Z,12.84
2019-05-17T20:54:03.074Z,12.87
2019-05-17T20:57:03.032Z,12.87
2019-05-17T21:00:03.013Z,12.93
2019-05-17T21:03:02.974Z,12.85
2019-05-17T21:06:02.947Z,12.81
2019-05-17T21:09:02.896Z,12.87
2019-05-17T21:12:02.876Z,12.82
2019-05-17T21:15:02.878Z,12.74
2019-05-17T21:18:02.817Z,12.75
2019-05-17T21:21:02.780Z,12.82
2019-05-17T21:24:02.747Z,12.87
2019-05-17T21:27:02.719Z,12.87
2019-05-17T21:30:02.671Z,12.93
2019-05-17T21:33:02.708Z,12.92
2019-05-17T21:36:02.602Z,12.79
2019-05-17T21:39:02.590Z,12.88
2019-05-17T21:42:02.550Z,12.75
2019-05-17T21:45:02.522Z,12.85
2019-05-17T21:48:02.484Z,12.79
2019-05-17T21:51:02.440Z,12.78
2019-05-17T21:54:02.415Z,12.77
2019-05-17T21:57:02.372Z,12.69
2019-05-17T22:00:03.222Z,12.79
2019-05-17T22:03:02.323Z,12.79
2019-05-17T22:06:02.299Z,12.78
2019-05-17T22:09:02.244Z,12.63
2019-05-17T22:12:02.257Z,12.62
2019-05-17T22:15:02.211Z,12.57
2019-05-17T22:18:02.145Z,12.63
2019-05-17T22:21:02.135Z,12.52
2019-05-17T22:24:02.109Z,12.54
2019-05-17T22:27:02.062Z,12.45
2019-05-17T22:30:02.043Z,12.46
2019-05-17T22:33:01.982Z,12.27
2019-05-17T22:36:01.974Z,12.16
2019-05-17T22:39:01.913Z,12.24
2019-05-17T22:42:01.897Z,12.31
2019-05-17T22:45:01.850Z,12.11
2019-05-17T22:48:01.839Z,12.01
2019-05-17T22:51:01.793Z,12.11
2019-05-17T22:54:01.803Z,12.16
2019-05-17T22:57:01.730Z,12.09
2019-05-17T23:00:01.681Z,12.04
2019-05-17T23:03:01.672Z,11.86
2019-05-17T23:06:01.633Z,11.77
2019-05-17T23:09:01.621Z,11.67
2019-05-17T23:12:01.550Z,11.44
2019-05-17T23:15:01.546Z,11.44
2019-05-17T23:18:01.483Z,11.43
2019-05-17T23:21:01.501Z,11.44
2019-05-17T23:24:01.414Z,11.59
2019-05-17T23:27:01.422Z,11.57
2019-05-17T23:30:01.362Z,11.47
2019-05-17T23:33:01.367Z,11.41
2019-05-17T23:36:01.316Z,11.43
2019-05-17T23:39:01.271Z,11.29
2019-05-17T23:42:01.241Z,11.20
2019-05-17T23:45:01.206Z,11.19
2019-05-17T23:48:01.150Z,11.06
2019-05-17T23:51:01.150Z,10.81
2019-05-17T23:54:01.081Z,10.86
2019-05-17T23:57:01.072Z,10.60
